Time;durP1;ratioP1;P1;durP2;ratioP2;P2;SDS_P1;SDS_P2;PMS_P1;PMS_P2;Temp;Humidity;BMP_temperature;BMP_pressure;BME280_temperature;BME280_humidity;BME280_pressure;Samples;Min_cycle;Max_cycle;Signal;HPM_P1;HPM_P2
2021/12/06 00:00:17;;;;;;;173.85;72.40;;;1.00;99.90;;;;;;5049948;27;20474;-74
2021/12/06 00:02:43;;;;;;;159.80;66.57;;;1.00;99.90;;;;;;5049951;28;20025;-74
2021/12/06 00:05:10;;;;;;;171.88;68.57;;;1.00;99.90;;;;;;5051070;28;20028;-75
2021/12/06 00:07:38;;;;;;;152.70;59.03;;;1.00;99.90;;;;;;5049628;27;20032;-75
2021/12/06 00:10:05;;;;;;;171.85;65.38;;;1.00;99.90;;;;;;5049709;27;20061;-74
2021/12/06 00:12:31;;;;;;;165.85;71.03;;;1.00;99.90;;;;;;5051027;28;20475;-74
2021/12/06 00:14:56;;;;;;;204.98;72.47;;;1.00;99.90;;;;;;5049653;27;20028;-74
2021/12/06 00:17:22;;;;;;;211.98;71.72;;;1.00;99.90;;;;;;5050931;28;20032;-74
2021/12/06 00:19:48;;;;;;;214.25;80.80;;;1.00;99.90;;;;;;5049611;27;20021;-74
2021/12/06 00:22:46;;;;;;;177.13;72.15;;;1.00;99.90;;;;;;5049601;28;20032;-74
2021/12/06 00:25:13;;;;;;;213.93;71.53;;;1.00;99.90;;;;;;5050770;28;20036;-75
2021/12/06 00:27:39;;;;;;;154.38;62.63;;;1.00;99.90;;;;;;5050688;28;20021;-74
2021/12/06 00:30:09;;;;;;;206.02;73.03;;;1.00;99.90;;;;;;5049489;27;20036;-75
2021/12/06 00:32:35;;;;;;;193.95;70.45;;;1.00;99.90;;;;;;5050716;28;20021;-74
2021/12/06 00:35:01;;;;;;;232.68;71.32;;;1.00;99.90;;;;;;5048710;28;20518;-74
2021/12/06 00:37:34;;;;;;;186.88;63.22;;;1.00;99.90;;;;;;5050629;28;20142;-75
2021/12/06 00:40:01;;;;;;;193.13;66.13;;;1.00;99.90;;;;;;5050622;28;20021;-74
2021/12/06 00:42:33;;;;;;;204.07;70.78;;;1.00;99.90;;;;;;5050315;27;20032;-74
2021/12/06 00:44:58;;;;;;;193.65;69.40;;;1.00;99.90;;;;;;5049478;27;20056;-74
2021/12/06 00:47:24;;;;;;;172.50;67.15;;;1.00;99.90;;;;;;5049254;28;20474;-75
2021/12/06 00:49:50;;;;;;;210.43;68.97;;;1.00;99.90;;;;;;5050350;28;20033;-74
2021/12/06 00:52:17;;;;;;;231.25;77.60;;;1.00;99.90;;;;;;5050415;28;20086;-74
2021/12/06 00:54:44;;;;;;;152.02;61.30;;;0.90;99.90;;;;;;5050281;28;20057;-74
2021/12/06 00:57:11;;;;;;;205.95;75.78;;;1.00;99.90;;;;;;5049124;28;20024;-74
2021/12/06 00:59:38;;;;;;;185.68;66.78;;;1.00;99.90;;;;;;5048884;27;20033;-74
2021/12/06 01:02:05;;;;;;;171.52;65.72;;;1.00;99.90;;;;;;5049038;27;20017;-75
2021/12/06 01:04:33;;;;;;;179.07;66.38;;;1.00;99.90;;;;;;5050144;28;20028;-74
2021/12/06 01:06:59;;;;;;;180.40;67.60;;;1.00;99.90;;;;;;5048943;28;20063;-75
2021/12/06 01:09:25;;;;;;;192.30;70.55;;;1.00;99.90;;;;;;5050030;28;20071;-75
2021/12/06 01:11:51;;;;;;;177.40;72.90;;;1.00;99.90;;;;;;5050145;28;20069;-75
2021/12/06 01:14:18;;;;;;;184.15;70.75;;;1.00;99.90;;;;;;5048963;27;20116;-74
2021/12/06 01:16:44;;;;;;;178.68;65.90;;;1.00;99.90;;;;;;5050048;28;20025;-75
2021/12/06 01:19:09;;;;;;;169.93;62.75;;;1.00;99.90;;;;;;5048739;28;20151;-75
2021/12/06 01:21:48;;;;;;;180.55;73.68;;;1.00;99.90;;;;;;5048732;28;20025;-74
2021/12/06 01:24:17;;;;;;;202.73;74.55;;;1.00;99.90;;;;;;5050035;28;20104;-74
2021/12/06 01:27:09;;;;;;;197.90;71.43;;;1.00;99.90;;;;;;5048657;27;20096;-75
2021/12/06 01:32:59;;;;;;;156.50;61.15;;;1.00;99.90;;;;;;5050212;28;20530;-74
2021/12/06 01:40:38;;;;;;;168.15;70.25;;;1.00;99.90;;;;;;5049716;28;20028;-74
2021/12/06 01:43:04;;;;;;;174.85;69.88;;;1.00;99.90;;;;;;5048562;27;20029;-74
2021/12/06 01:45:30;;;;;;;165.55;69.28;;;1.00;99.90;;;;;;5050245;28;20025;-74
2021/12/06 01:47:56;;;;;;;186.80;76.47;;;1.00;99.90;;;;;;5053169;28;20025;-74
2021/12/06 01:50:28;;;;;;;224.00;82.60;;;1.00;99.90;;;;;;5053246;28;20077;-74
2021/12/06 01:52:57;;;;;;;200.50;74.55;;;1.00;99.90;;;;;;5051955;28;20017;-75
2021/12/06 01:55:29;;;;;;;243.25;83.30;;;1.00;99.90;;;;;;5053072;28;20017;-74
2021/12/06 01:57:56;;;;;;;249.93;73.45;;;0.90;99.90;;;;;;5051910;28;20025;-74
2021/12/06 02:00:35;;;;;;;191.30;70.38;;;0.80;99.90;;;;;;5051706;28;20108;-74
2021/12/06 02:03:01;;;;;;;142.68;59.92;;;0.80;99.90;;;;;;5053101;28;20025;-74
2021/12/06 02:05:27;;;;;;;169.07;62.90;;;0.70;99.90;;;;;;5051632;28;20062;-74
2021/12/06 02:07:52;;;;;;;158.63;60.03;;;0.80;99.90;;;;;;5052942;28;20033;-74
2021/12/06 02:10:20;;;;;;;150.07;63.97;;;0.80;99.90;;;;;;5051627;28;20154;-74
2021/12/06 02:12:48;;;;;;;144.65;54.33;;;0.80;99.90;;;;;;5051631;28;20029;-75
2021/12/06 02:15:31;;;;;;;190.05;74.53;;;0.80;99.90;;;;;;5051573;27;20423;-74
2021/12/06 02:18:07;;;;;;;179.85;70.22;;;0.80;99.90;;;;;;5051565;27;20116;-74
2021/12/06 02:20:41;;;;;;;185.35;72.72;;;0.80;99.90;;;;;;5052758;28;20036;-74
2021/12/06 02:23:06;;;;;;;164.50;67.72;;;0.80;99.90;;;;;;5052730;28;20545;-74
2021/12/06 02:25:32;;;;;;;208.18;75.30;;;0.80;99.90;;;;;;5052673;28;20071;-74
2021/12/06 02:27:58;;;;;;;203.32;72.93;;;0.80;99.90;;;;;;5051286;28;20056;-74
2021/12/06 02:30:24;;;;;;;198.65;73.85;;;0.80;99.90;;;;;;5052558;28;20074;-74
2021/12/06 02:32:50;;;;;;;222.07;81.38;;;0.80;99.90;;;;;;5052593;28;20025;-75
2021/12/06 02:35:19;;;;;;;172.43;68.75;;;0.80;99.90;;;;;;5051224;28;20021;-74
2021/12/06 02:37:46;;;;;;;197.75;70.57;;;0.80;99.90;;;;;;5051263;28;20490;-75
2021/12/06 02:40:24;;;;;;;187.70;68.57;;;0.80;99.90;;;;;;5052451;28;20466;-74
2021/12/06 02:42:50;;;;;;;180.05;69.65;;;0.80;99.90;;;;;;5051053;28;20021;-75
2021/12/06 02:45:20;;;;;;;191.43;76.03;;;0.80;99.90;;;;;;5052505;28;20033;-74
2021/12/06 02:47:53;;;;;;;197.00;73.03;;;0.90;99.90;;;;;;5052315;28;20467;-74
2021/12/06 02:50:21;;;;;;;166.77;63.60;;;0.80;99.90;;;;;;5052389;28;20078;-74
2021/12/06 02:52:47;;;;;;;171.27;64.18;;;0.90;99.90;;;;;;5051041;28;20025;-75
2021/12/06 02:55:36;;;;;;;178.73;71.25;;;0.90;99.90;;;;;;5052172;28;20082;-75
2021/12/06 02:58:32;;;;;;;170.43;65.55;;;0.90;99.90;;;;;;5050456;28;20051;-74
2021/12/06 03:00:59;;;;;;;150.13;55.42;;;0.90;99.90;;;;;;5052256;28;20021;-74
2021/12/06 03:03:24;;;;;;;150.25;59.42;;;0.90;99.90;;;;;;5050846;28;20029;-74
2021/12/06 03:05:52;;;;;;;165.10;63.15;;;0.90;99.90;;;;;;5052083;28;20021;-76
2021/12/06 03:08:39;;;;;;;168.90;67.32;;;0.90;99.90;;;;;;5051994;28;20490;-74
2021/12/06 03:11:08;;;;;;;163.80;59.88;;;0.90;99.90;;;;;;5050744;28;20018;-75
2021/12/06 03:13:34;;;;;;;235.00;76.95;;;0.90;99.90;;;;;;5051947;28;20032;-75
2021/12/06 03:15:59;;;;;;;202.27;71.95;;;0.90;99.90;;;;;;5050648;27;20026;-75
2021/12/06 03:18:25;;;;;;;202.02;81.50;;;0.90;99.90;;;;;;5051819;28;20033;-74
2021/12/06 03:20:50;;;;;;;215.23;77.68;;;0.90;99.90;;;;;;5051869;28;20025;-75
2021/12/06 03:23:16;;;;;;;226.35;77.63;;;0.90;99.90;;;;;;5050556;28;20394;-75
2021/12/06 03:25:43;;;;;;;243.07;78.45;;;0.80;99.90;;;;;;5051690;28;20047;-75
2021/12/06 03:28:09;;;;;;;203.32;72.85;;;0.80;99.90;;;;;;5051619;28;20033;-75
2021/12/06 03:30:35;;;;;;;169.15;67.50;;;0.80;99.90;;;;;;5051689;28;20104;-74
2021/12/06 03:33:00;;;;;;;247.38;81.20;;;0.80;99.90;;;;;;5050416;27;20385;-74
2021/12/06 03:35:26;;;;;;;208.20;74.35;;;0.80;99.90;;;;;;5050297;28;20029;-75
2021/12/06 03:37:52;;;;;;;203.68;71.50;;;0.80;99.90;;;;;;5051573;28;20025;-75
2021/12/06 03:40:17;;;;;;;182.48;66.50;;;0.80;99.90;;;;;;5051555;28;20036;-74
2021/12/06 03:42:43;;;;;;;168.73;64.60;;;0.80;99.90;;;;;;5050187;28;20017;-75
2021/12/06 03:45:10;;;;;;;177.77;64.72;;;0.80;99.90;;;;;;5050165;27;20032;-74
2021/12/06 03:47:36;;;;;;;196.85;71.50;;;0.80;99.90;;;;;;5051316;28;20112;-74
2021/12/06 03:50:05;;;;;;;170.93;63.30;;;0.80;99.90;;;;;;5051257;28;20113;-75
2021/12/06 03:52:31;;;;;;;171.60;63.45;;;0.80;99.90;;;;;;5051300;28;20021;-74
2021/12/06 03:54:57;;;;;;;191.32;65.60;;;0.80;99.90;;;;;;5051288;28;20527;-74
2021/12/06 03:57:23;;;;;;;170.20;59.35;;;0.80;99.90;;;;;;5051233;28;20025;-75
2021/12/06 03:59:50;;;;;;;165.02;58.28;;;0.70;99.90;;;;;;5051194;28;20025;-74
2021/12/06 04:02:16;;;;;;;148.23;56.15;;;0.80;99.90;;;;;;5049924;28;20021;-75
2021/12/06 04:04:43;;;;;;;175.55;61.88;;;0.70;99.90;;;;;;5049835;27;20029;-75
2021/12/06 04:07:09;;;;;;;150.68;58.92;;;0.70;99.90;;;;;;5049907;28;20128;-75
2021/12/06 04:09:35;;;;;;;160.68;57.65;;;0.70;99.90;;;;;;5049901;28;20033;-75
2021/12/06 04:12:02;;;;;;;158.93;61.28;;;0.70;99.90;;;;;;5051018;28;20017;-75
2021/12/06 04:14:27;;;;;;;147.05;57.28;;;0.70;99.90;;;;;;5049629;28;20028;-75
2021/12/06 04:16:53;;;;;;;135.25;54.00;;;0.60;99.90;;;;;;5049679;28;20025;-75
2021/12/06 04:19:19;;;;;;;134.10;51.20;;;0.70;99.90;;;;;;5049637;28;20025;-75
2021/12/06 04:21:46;;;;;;;150.52;58.00;;;0.70;99.90;;;;;;5050903;28;20463;-75
2021/12/06 04:24:13;;;;;;;138.70;52.78;;;0.70;99.90;;;;;;5049543;28;20477;-75
2021/12/06 04:26:39;;;;;;;160.20;60.28;;;0.70;99.90;;;;;;5050862;28;20025;-75
2021/12/06 04:29:05;;;;;;;182.68;60.35;;;0.70;99.90;;;;;;5050646;28;20033;-75
2021/12/06 04:31:37;;;;;;;133.90;54.10;;;0.60;99.90;;;;;;5050840;28;20025;-75
2021/12/06 04:34:03;;;;;;;154.82;62.65;;;0.60;99.90;;;;;;5049444;27;20490;-75
2021/12/06 04:36:29;;;;;;;145.95;60.05;;;0.70;99.90;;;;;;5050723;28;20104;-75
2021/12/06 04:38:54;;;;;;;137.68;51.50;;;0.60;99.90;;;;;;5049370;28;20466;-75
2021/12/06 04:41:21;;;;;;;96.60;43.25;;;0.60;99.90;;;;;;5049448;28;20052;-76
2021/12/06 04:43:47;;;;;;;96.97;41.83;;;0.60;99.90;;;;;;5050433;28;20074;-75
2021/12/06 04:46:13;;;;;;;92.30;39.13;;;0.60;99.90;;;;;;5050498;28;20402;-75
2021/12/06 04:48:39;;;;;;;81.93;36.60;;;0.60;99.90;;;;;;5049089;28;20040;-75
2021/12/06 04:51:06;;;;;;;79.72;33.53;;;0.60;99.90;;;;;;5050475;28;20486;-75
2021/12/06 04:53:36;;;;;;;93.00;40.95;;;0.50;99.90;;;;;;5049089;27;20029;-74
2021/12/06 04:56:26;;;;;;;74.18;30.27;;;0.60;99.90;;;;;;5049161;28;20102;-75
2021/12/06 04:59:09;;;;;;;72.00;29.27;;;0.60;99.90;;;;;;5049228;28;20025;-75
2021/12/06 05:01:35;;;;;;;57.80;24.67;;;0.60;99.90;;;;;;5050377;28;20468;-75
2021/12/06 05:04:09;;;;;;;60.13;26.35;;;0.60;99.90;;;;;;5050273;28;20021;-75
2021/12/06 05:06:37;;;;;;;59.58;26.23;;;0.50;99.90;;;;;;5048999;27;20046;-75
2021/12/06 05:09:09;;;;;;;58.65;24.27;;;0.50;99.90;;;;;;5048853;28;20025;-75
2021/12/06 05:11:35;;;;;;;56.22;24.45;;;0.50;99.90;;;;;;5048993;27;20111;-75
2021/12/06 05:14:02;;;;;;;56.40;25.50;;;0.50;99.90;;;;;;5050115;28;20158;-75
2021/12/06 05:16:28;;;;;;;52.80;23.88;;;0.50;99.90;;;;;;5048840;28;20013;-75
2021/12/06 05:18:54;;;;;;;58.63;25.85;;;0.40;99.90;;;;;;5048755;28;20025;-75
2021/12/06 05:21:20;;;;;;;76.65;32.50;;;0.40;99.90;;;;;;5048488;28;20027;-75
2021/12/06 05:23:46;;;;;;;77.43;34.55;;;0.50;99.90;;;;;;5048663;28;20021;-76
2021/12/06 05:26:12;;;;;;;76.47;35.05;;;0.50;99.90;;;;;;5049974;28;20025;-75
2021/12/06 05:28:43;;;;;;;85.97;39.08;;;0.50;99.90;;;;;;5048528;28;20033;-75
2021/12/06 05:31:15;;;;;;;80.28;37.58;;;0.50;99.90;;;;;;5050013;28;20127;-75
2021/12/06 05:33:46;;;;;;;65.95;29.63;;;0.50;99.90;;;;;;5049881;28;20036;-74
2021/12/06 05:36:12;;;;;;;61.97;26.08;;;0.50;99.90;;;;;;5049906;28;20023;-75
2021/12/06 05:38:38;;;;;;;64.32;27.30;;;0.50;99.90;;;;;;5049752;28;20044;-75
2021/12/06 05:41:04;;;;;;;48.47;23.30;;;0.50;99.90;;;;;;5048544;28;20013;-75
2021/12/06 05:43:30;;;;;;;58.90;25.48;;;0.50;99.90;;;;;;5049625;28;20029;-75
2021/12/06 05:45:56;;;;;;;50.78;24.40;;;0.60;99.90;;;;;;5048520;28;20394;-75
2021/12/06 05:48:22;;;;;;;62.53;27.60;;;0.50;99.90;;;;;;5048305;28;20040;-76
2021/12/06 05:50:49;;;;;;;47.58;22.40;;;0.60;99.90;;;;;;5049569;28;20049;-75
2021/12/06 05:53:16;;;;;;;50.40;21.83;;;0.60;99.90;;;;;;5049630;28;20029;-75
2021/12/06 05:55:42;;;;;;;50.55;24.08;;;0.60;99.90;;;;;;5049546;28;20029;-74
2021/12/06 05:58:10;;;;;;;51.83;24.52;;;0.70;99.90;;;;;;5049579;28;20029;-75
2021/12/06 06:00:36;;;;;;;39.67;17.98;;;0.70;99.90;;;;;;5047522;28;20028;-74
2021/12/06 06:03:05;;;;;;;46.60;20.45;;;0.70;99.90;;;;;;5047338;28;20033;-75
2021/12/06 06:05:33;;;;;;;47.67;21.33;;;0.70;99.90;;;;;;5048130;28;20119;-75
2021/12/06 06:07:58;;;;;;;44.67;21.13;;;0.70;99.90;;;;;;5049363;28;20029;-75
2021/12/06 06:10:24;;;;;;;52.45;20.45;;;0.70;99.90;;;;;;5048099;28;20035;-75
2021/12/06 06:12:50;;;;;;;44.35;20.60;;;0.80;99.90;;;;;;5049374;28;20057;-74
2021/12/06 06:15:16;;;;;;;40.90;18.63;;;0.80;99.90;;;;;;5048181;27;20385;-75
2021/12/06 06:17:43;;;;;;;40.53;18.70;;;0.80;99.90;;;;;;5101813;27;20034;-74
2021/12/06 06:20:14;;;;;;;37.92;18.00;;;0.80;99.90;;;;;;5042037;27;20045;-74
2021/12/06 06:22:39;;;;;;;44.40;20.90;;;0.80;99.90;;;;;;5043132;27;20033;-75
2021/12/06 06:25:05;;;;;;;48.75;22.48;;;0.80;99.90;;;;;;5036432;27;20022;-75
2021/12/06 06:27:31;;;;;;;50.47;24.73;;;0.80;99.90;;;;;;5045660;27;20064;-76
2021/12/06 06:29:57;;;;;;;53.95;28.17;;;0.80;99.90;;;;;;5033685;27;20064;-75
2021/12/06 06:32:22;;;;;;;41.95;21.27;;;0.80;99.90;;;;;;5047211;27;20060;-75
2021/12/06 06:34:48;;;;;;;42.33;22.30;;;0.80;99.90;;;;;;5050777;28;20025;-75
2021/12/06 06:37:14;;;;;;;61.42;32.05;;;0.80;99.90;;;;;;5051434;27;20422;-75
2021/12/06 06:39:39;;;;;;;52.55;25.33;;;0.80;99.90;;;;;;5126856;27;20011;-75
2021/12/06 06:42:05;;;;;;;57.42;27.40;;;0.80;99.90;;;;;;5135298;27;20468;-75
2021/12/06 06:44:31;;;;;;;51.53;25.77;;;0.80;99.90;;;;;;5051922;27;20033;-75
2021/12/06 06:46:56;;;;;;;37.38;19.58;;;0.80;99.90;;;;;;5052301;28;20096;-75
2021/12/06 06:49:24;;;;;;;32.90;17.35;;;0.80;99.90;;;;;;5057143;27;20061;-75
2021/12/06 06:51:50;;;;;;;36.20;21.38;;;0.80;99.90;;;;;;5112119;27;20011;-75
2021/12/06 06:54:16;;;;;;;42.20;18.13;;;0.80;99.90;;;;;;5143944;27;20385;-75
2021/12/06 06:56:42;;;;;;;34.05;15.90;;;0.80;99.90;;;;;;5108119;27;20081;-76
2021/12/06 06:59:07;;;;;;;143.05;50.17;;;0.80;99.90;;;;;;5096493;27;20367;-75
2021/12/06 07:01:33;;;;;;;67.82;27.30;;;0.80;99.90;;;;;;5104275;27;20033;-76
2021/12/06 07:03:59;;;;;;;108.60;36.75;;;0.80;99.90;;;;;;5105401;27;20033;-75
2021/12/06 07:06:26;;;;;;;93.05;33.40;;;0.80;99.90;;;;;;5095969;27;20021;-75
2021/12/06 07:08:54;;;;;;;29.90;14.65;;;0.80;99.90;;;;;;5103596;27;20027;-75
2021/12/06 07:11:21;;;;;;;44.95;19.38;;;0.70;99.90;;;;;;5106121;27;20092;-75
2021/12/06 07:13:47;;;;;;;34.33;16.27;;;0.70;99.90;;;;;;5096344;27;20489;-76
2021/12/06 07:16:16;;;;;;;41.63;19.20;;;0.70;99.90;;;;;;5103739;27;20034;-75
2021/12/06 07:18:42;;;;;;;40.97;20.15;;;0.80;99.90;;;;;;5107939;27;20033;-75
2021/12/06 07:21:09;;;;;;;29.20;15.32;;;0.70;99.90;;;;;;5088368;27;20089;-75
2021/12/06 07:23:38;;;;;;;26.20;13.20;;;0.70;99.90;;;;;;5098346;27;20016;-75
2021/12/06 07:26:08;;;;;;;28.98;14.70;;;0.60;99.90;;;;;;5104216;27;20038;-75
2021/12/06 07:28:34;;;;;;;33.08;17.60;;;0.70;99.90;;;;;;5064725;27;20056;-75
2021/12/06 07:31:01;;;;;;;37.13;18.88;;;0.70;99.90;;;;;;5050464;28;20433;-75
2021/12/06 07:33:28;;;;;;;39.65;21.02;;;0.70;99.90;;;;;;5034037;28;20467;-75
2021/12/06 07:35:53;;;;;;;45.25;22.83;;;0.80;99.90;;;;;;5079270;27;20026;-75
2021/12/06 07:38:19;;;;;;;59.75;29.50;;;0.80;99.90;;;;;;5095633;27;20013;-75
2021/12/06 07:40:45;;;;;;;59.35;32.65;;;0.80;99.90;;;;;;5104686;27;20011;-75
2021/12/06 07:43:11;;;;;;;58.28;31.80;;;0.90;99.90;;;;;;5106388;27;20050;-75
2021/12/06 07:45:36;;;;;;;33.53;17.15;;;0.90;99.90;;;;;;5097858;27;20021;-75
2021/12/06 07:48:02;;;;;;;25.38;14.52;;;0.80;99.90;;;;;;5110116;27;20046;-75
2021/12/06 07:50:28;;;;;;;34.67;17.98;;;0.90;99.90;;;;;;5141619;27;20098;-75
2021/12/06 07:52:54;;;;;;;31.88;16.98;;;0.80;99.90;;;;;;5155072;27;20486;-75
2021/12/06 07:55:22;;;;;;;24.98;13.95;;;0.80;99.90;;;;;;5156146;27;20030;-75
2021/12/06 07:57:48;;;;;;;27.27;15.93;;;0.80;99.90;;;;;;5154532;27;20018;-75
2021/12/06 08:00:21;;;;;;;30.00;15.98;;;0.70;99.90;;;;;;5153681;27;20019;-75
2021/12/06 08:02:48;;;;;;;24.48;13.40;;;0.80;99.90;;;;;;5154975;27;20019;-75
2021/12/06 08:05:34;;;;;;;23.55;13.10;;;0.70;99.90;;;;;;5154588;27;20027;-75
2021/12/06 08:08:11;;;;;;;27.73;13.23;;;0.70;99.90;;;;;;5154557;27;20045;-75
2021/12/06 08:10:43;;;;;;;24.33;15.25;;;0.60;99.90;;;;;;5154710;27;20019;-75
2021/12/06 08:13:18;;;;;;;25.77;14.63;;;0.60;99.90;;;;;;5155983;27;20030;-75
2021/12/06 08:15:45;;;;;;;30.98;16.48;;;0.60;99.90;;;;;;5152471;27;20436;-75
2021/12/06 08:18:11;;;;;;;31.70;19.75;;;0.60;99.90;;;;;;5076604;27;20049;-75
2021/12/06 08:20:38;;;;;;;29.52;18.35;;;0.70;99.90;;;;;;5047184;28;20113;-75
2021/12/06 08:23:05;;;;;;;35.42;19.60;;;0.70;99.90;;;;;;5049923;28;20017;-75
2021/12/06 08:25:31;;;;;;;102.15;46.03;;;0.70;99.90;;;;;;5048767;28;20178;-75
2021/12/06 08:27:57;;;;;;;73.80;33.83;;;0.70;99.90;;;;;;5049208;28;20052;-75
2021/12/06 08:30:25;;;;;;;68.10;32.65;;;0.70;99.90;;;;;;5049970;28;20067;-75
2021/12/06 08:32:53;;;;;;;78.53;38.47;;;0.70;99.90;;;;;;5047933;28;20017;-75
2021/12/06 08:35:19;;;;;;;50.90;26.08;;;0.80;99.90;;;;;;5049274;28;20029;-75
2021/12/06 08:37:46;;;;;;;36.22;19.75;;;0.80;99.90;;;;;;5046240;28;20022;-75
2021/12/06 08:40:14;;;;;;;31.52;17.58;;;0.60;99.90;;;;;;5047775;27;20041;-75
2021/12/06 08:42:41;;;;;;;35.50;18.73;;;0.70;99.90;;;;;;5046556;28;20032;-75
2021/12/06 08:45:08;;;;;;;36.50;18.67;;;0.60;99.90;;;;;;5046767;27;20033;-75
2021/12/06 08:47:34;;;;;;;33.95;20.40;;;0.70;99.90;;;;;;5131228;27;20421;-75
2021/12/06 08:50:00;;;;;;;35.92;19.70;;;0.60;99.90;;;;;;5092616;27;20037;-75
2021/12/06 08:52:27;;;;;;;33.97;22.08;;;0.70;99.90;;;;;;5049411;28;20125;-76
2021/12/06 08:54:52;;;;;;;47.20;24.73;;;0.70;99.90;;;;;;5048025;28;20021;-75
2021/12/06 08:57:18;;;;;;;56.92;33.25;;;0.80;99.90;;;;;;5048810;28;20060;-75
2021/12/06 08:59:45;;;;;;;33.75;17.92;;;0.80;99.90;;;;;;5049520;28;20396;-75
2021/12/06 09:02:10;;;;;;;31.98;18.05;;;0.80;99.90;;;;;;5050084;28;20028;-75
2021/12/06 09:04:39;;;;;;;51.63;28.73;;;0.90;99.90;;;;;;5079162;27;20015;-75
2021/12/06 09:07:12;;;;;;;76.05;40.60;;;0.80;99.90;;;;;;5106174;27;20023;-76
2021/12/06 09:09:45;;;;;;;63.83;34.42;;;0.80;99.90;;;;;;5102298;27;20152;-75
2021/12/06 09:12:17;;;;;;;50.63;29.42;;;0.80;99.90;;;;;;5097013;27;20028;-75
2021/12/06 09:14:42;;;;;;;43.45;22.77;;;0.90;99.90;;;;;;5096605;27;20034;-75
2021/12/06 09:17:08;;;;;;;32.95;21.05;;;0.90;99.90;;;;;;5097146;27;20022;-75
2021/12/06 09:19:34;;;;;;;29.73;17.83;;;0.90;99.90;;;;;;5102673;27;20019;-75
2021/12/06 09:22:00;;;;;;;29.77;18.25;;;0.90;99.90;;;;;;5105466;27;20104;-76
2021/12/06 09:24:26;;;;;;;44.13;28.60;;;0.90;99.90;;;;;;5095073;27;20013;-77
2021/12/06 09:26:51;;;;;;;39.55;23.73;;;0.90;99.90;;;;;;5103750;27;20101;-75
2021/12/06 09:29:18;;;;;;;49.08;29.48;;;0.80;99.90;;;;;;5125141;27;20396;-75
2021/12/06 09:31:44;;;;;;;35.10;21.67;;;0.80;99.90;;;;;;5154676;27;20094;-75
2021/12/06 09:34:11;;;;;;;35.95;18.80;;;0.80;99.90;;;;;;5153300;27;20033;-75
2021/12/06 09:36:37;;;;;;;37.22;21.02;;;0.80;99.90;;;;;;5154615;27;20062;-75
2021/12/06 09:39:06;;;;;;;34.33;21.17;;;0.80;99.90;;;;;;5154540;27;20023;-75
2021/12/06 09:41:32;;;;;;;38.95;21.85;;;0.90;99.90;;;;;;5058435;27;20053;-75
2021/12/06 09:44:00;;;;;;;43.70;23.55;;;0.80;99.90;;;;;;5049616;28;20033;-75
2021/12/06 09:46:29;;;;;;;44.90;23.92;;;0.80;99.90;;;;;;5049546;27;20030;-75
2021/12/06 09:48:55;;;;;;;40.83;24.48;;;0.80;99.90;;;;;;5049199;28;20037;-75
2021/12/06 09:51:25;;;;;;;41.15;23.00;;;0.80;99.90;;;;;;5047555;28;20493;-76
2021/12/06 09:53:53;;;;;;;41.45;22.13;;;0.70;99.90;;;;;;5047880;28;20462;-76
2021/12/06 09:56:24;;;;;;;47.10;22.50;;;0.70;99.90;;;;;;5047826;28;20453;-76
2021/12/06 09:58:52;;;;;;;42.88;22.23;;;0.70;99.90;;;;;;5047849;28;20025;-76
2021/12/06 10:01:22;;;;;;;40.90;22.10;;;0.70;99.90;;;;;;5049087;28;20024;-76
2021/12/06 10:03:49;;;;;;;43.00;23.50;;;0.70;99.90;;;;;;5078623;27;20505;-76
2021/12/06 10:06:19;;;;;;;46.55;23.33;;;0.70;99.90;;;;;;5048718;28;20021;-76
2021/12/06 10:08:49;;;;;;;49.58;26.60;;;0.70;99.90;;;;;;5052360;28;20040;-76
2021/12/06 10:11:18;;;;;;;45.35;25.65;;;0.70;99.90;;;;;;5052414;28;20025;-76
2021/12/06 10:13:45;;;;;;;49.20;25.58;;;0.70;99.90;;;;;;5052304;28;20029;-76
2021/12/06 10:16:12;;;;;;;53.00;27.25;;;0.80;99.90;;;;;;5121352;27;20365;-76
2021/12/06 10:18:39;;;;;;;48.70;23.05;;;0.80;99.90;;;;;;5052169;27;20035;-76
2021/12/06 10:21:05;;;;;;;47.72;25.38;;;0.70;99.90;;;;;;5052059;28;20028;-76
2021/12/06 10:23:32;;;;;;;52.65;28.02;;;0.60;99.90;;;;;;5121126;27;20023;-77
2021/12/06 10:25:58;;;;;;;52.97;29.27;;;0.60;99.90;;;;;;5052116;28;20104;-77
2021/12/06 10:28:28;;;;;;;52.42;26.33;;;0.60;99.90;;;;;;5118385;27;20126;-77
2021/12/06 10:30:58;;;;;;;58.67;27.77;;;0.70;99.90;;;;;;5069532;27;20025;-76
2021/12/06 10:33:30;;;;;;;59.75;32.15;;;0.70;99.90;;;;;;5079564;27;20025;-76
2021/12/06 10:36:00;;;;;;;63.10;33.08;;;0.70;99.90;;;;;;5051995;28;20025;-75
2021/12/06 10:38:33;;;;;;;52.90;29.42;;;0.70;99.90;;;;;;5050372;28;20021;-76
2021/12/06 10:41:02;;;;;;;47.67;27.13;;;0.60;99.90;;;;;;5051090;28;20052;-75
2021/12/06 10:43:28;;;;;;;50.65;26.02;;;0.60;99.90;;;;;;5049261;28;20033;-75
2021/12/06 10:45:55;;;;;;;52.63;30.48;;;0.60;99.90;;;;;;5055760;27;20040;-75
2021/12/06 10:48:27;;;;;;;48.78;26.08;;;0.70;99.90;;;;;;5050640;28;20063;-76
2021/12/06 10:50:52;;;;;;;50.53;24.58;;;0.60;99.90;;;;;;5093581;27;20423;-76
2021/12/06 10:53:22;;;;;;;44.85;23.50;;;0.50;99.90;;;;;;5063076;27;20075;-77
2021/12/06 10:55:51;;;;;;;43.15;21.52;;;0.50;99.90;;;;;;5053358;27;20025;-75
2021/12/06 10:58:21;;;;;;;48.53;24.45;;;0.50;99.90;;;;;;5048522;28;20032;-76
2021/12/06 11:01:03;;;;;;;49.22;24.63;;;0.50;99.90;;;;;;5048686;28;20024;-75
2021/12/06 11:03:34;;;;;;;54.70;24.88;;;0.50;99.90;;;;;;5048851;28;20407;-75
2021/12/06 11:06:07;;;;;;;56.00;28.38;;;0.40;99.90;;;;;;5050558;28;20069;-76
2021/12/06 11:08:37;;;;;;;47.42;24.85;;;0.50;99.90;;;;;;5049636;28;20094;-75
2021/12/06 11:11:09;;;;;;;46.00;24.63;;;0.40;99.90;;;;;;5049388;28;20031;-75
2021/12/06 11:13:37;;;;;;;;;;;0.40;99.90;;;;;;5051178;28;20442;-76
2021/12/06 11:16:13;;;;;;;51.83;24.50;;;0.50;99.90;;;;;;5050464;28;19951;-76
2021/12/06 11:18:51;;;;;;;47.97;25.08;;;0.50;99.90;;;;;;5050813;28;20025;-76
2021/12/06 11:21:21;;;;;;;55.80;23.40;;;0.50;99.90;;;;;;5120093;27;20015;-76
2021/12/06 11:24:02;;;;;;;41.20;23.40;;;0.50;99.90;;;;;;5120035;27;20369;-76
2021/12/06 11:26:29;;;;;;;37.33;19.83;;;0.50;99.90;;;;;;5051138;28;20017;-75
2021/12/06 11:29:01;;;;;;;39.35;19.30;;;0.50;99.90;;;;;;5119932;27;20054;-75
2021/12/06 11:31:27;;;;;;;33.97;19.42;;;0.50;99.90;;;;;;5120023;27;20035;-75
2021/12/06 11:34:01;;;;;;;40.85;23.80;;;0.50;99.90;;;;;;5051033;28;20029;-75
2021/12/06 11:36:30;;;;;;;40.60;22.85;;;0.50;99.90;;;;;;5050800;28;20024;-75
2021/12/06 11:39:04;;;;;;;43.65;23.13;;;0.50;99.90;;;;;;5049990;27;20116;-75
2021/12/06 11:41:30;;;;;;;41.17;20.42;;;0.50;99.90;;;;;;5050979;28;20048;-75
2021/12/06 11:44:18;;;;;;;48.80;23.50;;;0.60;99.90;;;;;;5050139;28;20375;-75
2021/12/06 11:46:44;;;;;;;43.80;22.25;;;0.60;99.90;;;;;;5055112;28;20140;-75
2021/12/06 11:49:21;;;;;;;46.53;24.45;;;0.50;99.90;;;;;;5051366;28;20037;-75
2021/12/06 11:51:50;;;;;;;48.40;23.73;;;0.50;99.90;;;;;;5079453;27;20025;-75
2021/12/06 11:54:16;;;;;;;47.30;24.88;;;0.60;99.90;;;;;;5106030;27;20015;-75
2021/12/06 11:56:48;;;;;;;49.75;28.55;;;0.50;99.90;;;;;;5104898;27;20029;-75
2021/12/06 11:59:17;;;;;;;39.42;21.65;;;0.50;99.90;;;;;;5095316;27;20032;-75
2021/12/06 12:01:47;;;;;;;39.95;23.05;;;0.40;99.90;;;;;;5101198;27;20049;-75
2021/12/06 12:04:21;;;;;;;34.28;19.63;;;0.50;99.90;;;;;;5094109;27;20021;-75
2021/12/06 12:07:00;;;;;;;40.88;23.30;;;0.40;99.90;;;;;;5083427;27;20033;-75
2021/12/06 12:09:31;;;;;;;38.80;20.27;;;0.40;99.90;;;;;;5088366;27;20040;-75
2021/12/06 12:12:22;;;;;;;38.45;21.92;;;0.40;99.90;;;;;;5073729;27;20398;-75
2021/12/06 12:14:49;;;;;;;41.05;20.88;;;0.40;99.90;;;;;;5048112;28;20013;-75
2021/12/06 12:17:33;;;;;;;42.28;22.83;;;0.40;99.90;;;;;;5099110;27;20106;-75
2021/12/06 12:20:05;;;;;;;35.40;19.70;;;0.40;99.90;;;;;;5048472;28;20077;-75
2021/12/06 12:22:31;;;;;;;40.40;20.45;;;0.40;99.90;;;;;;5049341;28;20529;-75
2021/12/06 12:25:05;;;;;;;43.13;22.27;;;0.40;99.90;;;;;;5049253;28;20056;-75
2021/12/06 12:27:53;;;;;;;40.45;22.38;;;0.40;99.90;;;;;;5050638;28;20359;-75
2021/12/06 12:30:20;;;;;;;40.28;22.33;;;0.40;99.90;;;;;;5046671;28;20033;-75
2021/12/06 12:32:46;;;;;;;40.70;21.35;;;0.40;99.90;;;;;;5048677;28;20017;-75
2021/12/06 12:35:15;;;;;;;41.35;20.23;;;0.50;99.90;;;;;;5048627;28;20483;-75
2021/12/06 12:37:45;;;;;;;41.47;21.13;;;0.40;99.90;;;;;;5048778;28;20035;-75
2021/12/06 12:40:20;;;;;;;35.08;20.55;;;0.40;99.90;;;;;;5050543;28;20085;-75
2021/12/06 12:42:55;;;;;;;34.00;18.65;;;0.40;99.90;;;;;;5049919;28;20029;-75
2021/12/06 12:45:22;;;;;;;43.90;21.95;;;0.30;99.90;;;;;;5050251;28;20112;-75
2021/12/06 12:47:53;;;;;;;30.08;17.13;;;0.30;99.90;;;;;;5049002;28;20044;-75